sensor_id;sensor_type;location;lat;lon;timestamp;P1;durP1;ratioP1;P2;durP2;ratioP2
8268;SDS011;4174;48.304;16.364;2023-06-24T00:05:15;5.12;;;1.20;;
8268;SDS011;4174;48.304;16.364;2023-06-24T00:11:21;3.75;;;1.15;;
8268;SDS011;4174;48.304;16.364;2023-06-24T00:17:25;5.32;;;1.10;;
8268;SDS011;4174;48.304;16.364;2023-06-24T00:23:33;3.85;;;1.10;;
8268;SDS011;4174;48.304;16.364;2023-06-24T00:29:38;4.37;;;1.00;;
8268;SDS011;4174;48.304;16.364;2023-06-24T00:35:50;5.07;;;1.10;;
8268;SDS011;4174;48.304;16.364;2023-06-24T00:41:55;4.97;;;1.03;;
8268;SDS011;4174;48.304;16.364;2023-06-24T00:48:00;4.25;;;1.10;;
8268;SDS011;4174;48.304;16.364;2023-06-24T00:54:07;3.92;;;1.12;;
8268;SDS011;4174;48.304;16.364;2023-06-24T01:00:12;4.05;;;1.20;;
8268;SDS011;4174;48.304;16.364;2023-06-24T01:06:19;4.10;;;1.40;;
8268;SDS011;4174;48.304;16.364;2023-06-24T01:12:24;4.12;;;1.30;;
8268;SDS011;4174;48.304;16.364;2023-06-24T01:18:34;4.25;;;1.50;;
8268;SDS011;4174;48.304;16.364;2023-06-24T01:31:21;4.70;;;1.50;;
8268;SDS011;4174;48.304;16.364;2023-06-24T01:37:41;4.82;;;1.37;;
8268;SDS011;4174;48.304;16.364;2023-06-24T01:43:56;4.20;;;1.30;;
8268;SDS011;4174;48.304;16.364;2023-06-24T01:50:02;4.78;;;1.50;;
8268;SDS011;4174;48.304;16.364;2023-06-24T01:56:10;5.87;;;1.40;;
8268;SDS011;4174;48.304;16.364;2023-06-24T02:02:15;4.95;;;1.60;;
8268;SDS011;4174;48.304;16.364;2023-06-24T02:08:21;4.80;;;1.60;;
8268;SDS011;4174;48.304;16.364;2023-06-24T02:14:27;4.90;;;1.60;;
8268;SDS011;4174;48.304;16.364;2023-06-24T02:20:31;5.30;;;1.70;;
8268;SDS011;4174;48.304;16.364;2023-06-24T02:26:36;7.65;;;1.98;;
8268;SDS011;4174;48.304;16.364;2023-06-24T02:32:43;5.25;;;1.80;;
8268;SDS011;4174;48.304;16.364;2023-06-24T02:38:48;4.90;;;1.60;;
8268;SDS011;4174;48.304;16.364;2023-06-24T02:44:53;4.47;;;1.60;;
8268;SDS011;4174;48.304;16.364;2023-06-24T02:50:59;4.82;;;1.52;;
8268;SDS011;4174;48.304;16.364;2023-06-24T03:03:23;5.50;;;1.60;;
8268;SDS011;4174;48.304;16.364;2023-06-24T03:09:33;4.10;;;1.50;;
8268;SDS011;4174;48.304;16.364;2023-06-24T03:15:35;4.23;;;1.57;;
8268;SDS011;4174;48.304;16.364;2023-06-24T03:21:41;5.97;;;1.60;;
8268;SDS011;4174;48.304;16.364;2023-06-24T03:27:47;5.30;;;1.80;;
8268;SDS011;4174;48.304;16.364;2023-06-24T03:33:53;5.40;;;1.60;;
8268;SDS011;4174;48.304;16.364;2023-06-24T03:40:00;5.03;;;1.70;;
8268;SDS011;4174;48.304;16.364;2023-06-24T03:46:05;4.37;;;1.60;;
8268;SDS011;4174;48.304;16.364;2023-06-24T03:52:10;4.70;;;1.70;;
8268;SDS011;4174;48.304;16.364;2023-06-24T03:58:21;4.80;;;1.60;;
8268;SDS011;4174;48.304;16.364;2023-06-24T04:04:27;5.10;;;1.50;;
8268;SDS011;4174;48.304;16.364;2023-06-24T04:10:33;4.62;;;1.50;;
8268;SDS011;4174;48.304;16.364;2023-06-24T04:16:39;4.03;;;1.30;;
8268;SDS011;4174;48.304;16.364;2023-06-24T04:22:46;3.87;;;1.37;;
8268;SDS011;4174;48.304;16.364;2023-06-24T04:28:50;3.80;;;1.30;;
8268;SDS011;4174;48.304;16.364;2023-06-24T04:34:57;4.00;;;1.20;;
8268;SDS011;4174;48.304;16.364;2023-06-24T04:41:05;4.47;;;1.23;;
8268;SDS011;4174;48.304;16.364;2023-06-24T04:47:11;4.28;;;1.30;;
8268;SDS011;4174;48.304;16.364;2023-06-24T04:53:16;4.47;;;1.30;;
8268;SDS011;4174;48.304;16.364;2023-06-24T04:59:22;4.07;;;1.10;;
8268;SDS011;4174;48.304;16.364;2023-06-24T05:05:28;3.70;;;1.10;;
8268;SDS011;4174;48.304;16.364;2023-06-24T05:11:49;3.70;;;1.20;;
8268;SDS011;4174;48.304;16.364;2023-06-24T05:17:56;3.80;;;1.10;;
8268;SDS011;4174;48.304;16.364;2023-06-24T05:24:03;3.75;;;1.00;;
8268;SDS011;4174;48.304;16.364;2023-06-24T05:30:12;3.40;;;0.90;;
8268;SDS011;4174;48.304;16.364;2023-06-24T05:36:43;3.40;;;0.90;;
8268;SDS011;4174;48.304;16.364;2023-06-24T05:42:48;3.00;;;0.70;;
8268;SDS011;4174;48.304;16.364;2023-06-24T05:48:58;3.60;;;0.90;;
8268;SDS011;4174;48.304;16.364;2023-06-24T05:55:04;3.05;;;0.70;;
8268;SDS011;4174;48.304;16.364;2023-06-24T06:01:11;3.17;;;0.60;;
8268;SDS011;4174;48.304;16.364;2023-06-24T06:07:19;2.90;;;0.60;;
8268;SDS011;4174;48.304;16.364;2023-06-24T06:13:25;2.20;;;0.50;;
8268;SDS011;4174;48.304;16.364;2023-06-24T06:25:58;2.60;;;0.50;;
8268;SDS011;4174;48.304;16.364;2023-06-24T06:32:02;2.28;;;0.40;;
8268;SDS011;4174;48.304;16.364;2023-06-24T06:38:08;2.37;;;0.50;;
8268;SDS011;4174;48.304;16.364;2023-06-24T06:44:12;2.80;;;0.50;;
8268;SDS011;4174;48.304;16.364;2023-06-24T06:50:20;5.40;;;1.60;;
8268;SDS011;4174;48.304;16.364;2023-06-24T06:56:25;3.00;;;0.70;;
8268;SDS011;4174;48.304;16.364;2023-06-24T07:02:30;4.50;;;1.33;;
8268;SDS011;4174;48.304;16.364;2023-06-24T07:08:36;5.00;;;1.50;;
8268;SDS011;4174;48.304;16.364;2023-06-24T07:14:43;4.60;;;1.70;;
8268;SDS011;4174;48.304;16.364;2023-06-24T07:20:53;5.23;;;1.43;;
8268;SDS011;4174;48.304;16.364;2023-06-24T07:26:56;4.85;;;1.58;;
8268;SDS011;4174;48.304;16.364;2023-06-24T07:33:02;4.97;;;1.40;;
8268;SDS011;4174;48.304;16.364;2023-06-24T07:39:08;6.50;;;2.43;;
8268;SDS011;4174;48.304;16.364;2023-06-24T07:45:17;4.35;;;1.45;;
8268;SDS011;4174;48.304;16.364;2023-06-24T07:51:23;4.55;;;1.62;;
8268;SDS011;4174;48.304;16.364;2023-06-24T07:57:28;5.53;;;1.90;;
8268;SDS011;4174;48.304;16.364;2023-06-24T08:03:34;5.12;;;1.20;;
8268;SDS011;4174;48.304;16.364;2023-06-24T08:09:39;4.37;;;1.27;;
8268;SDS011;4174;48.304;16.364;2023-06-24T08:15:45;5.43;;;1.90;;
8268;SDS011;4174;48.304;16.364;2023-06-24T08:21:51;4.30;;;1.30;;
8268;SDS011;4174;48.304;16.364;2023-06-24T08:27:58;4.10;;;1.33;;
8268;SDS011;4174;48.304;16.364;2023-06-24T08:34:03;4.57;;;1.33;;
8268;SDS011;4174;48.304;16.364;2023-06-24T08:40:07;5.63;;;1.50;;
8268;SDS011;4174;48.304;16.364;2023-06-24T08:46:13;4.37;;;1.50;;
8268;SDS011;4174;48.304;16.364;2023-06-24T08:52:18;6.90;;;1.70;;
8268;SDS011;4174;48.304;16.364;2023-06-24T08:58:24;5.22;;;1.77;;
8268;SDS011;4174;48.304;16.364;2023-06-24T09:04:29;6.45;;;2.50;;
8268;SDS011;4174;48.304;16.364;2023-06-24T09:10:53;5.17;;;1.87;;
8268;SDS011;4174;48.304;16.364;2023-06-24T09:16:58;6.18;;;1.90;;
8268;SDS011;4174;48.304;16.364;2023-06-24T09:23:04;5.30;;;1.80;;
8268;SDS011;4174;48.304;16.364;2023-06-24T09:29:11;5.00;;;1.70;;
8268;SDS011;4174;48.304;16.364;2023-06-24T09:35:17;5.57;;;2.10;;
8268;SDS011;4174;48.304;16.364;2023-06-24T09:41:22;6.22;;;2.15;;
8268;SDS011;4174;48.304;16.364;2023-06-24T09:47:26;5.85;;;2.03;;
8268;SDS011;4174;48.304;16.364;2023-06-24T09:53:34;5.25;;;2.00;;
8268;SDS011;4174;48.304;16.364;2023-06-24T09:59:38;5.32;;;1.87;;
8268;SDS011;4174;48.304;16.364;2023-06-24T10:05:45;5.90;;;2.00;;
8268;SDS011;4174;48.304;16.364;2023-06-24T10:11:51;6.22;;;2.03;;
8268;SDS011;4174;48.304;16.364;2023-06-24T10:18:00;6.05;;;2.50;;
8268;SDS011;4174;48.304;16.364;2023-06-24T10:24:04;6.27;;;2.80;;
8268;SDS011;4174;48.304;16.364;2023-06-24T10:30:17;7.23;;;3.00;;
8268;SDS011;4174;48.304;16.364;2023-06-24T10:36:36;7.90;;;3.17;;
8268;SDS011;4174;48.304;16.364;2023-06-24T10:42:39;7.60;;;3.50;;
8268;SDS011;4174;48.304;16.364;2023-06-24T10:48:44;7.70;;;3.42;;
8268;SDS011;4174;48.304;16.364;2023-06-24T10:54:53;8.57;;;3.80;;
8268;SDS011;4174;48.304;16.364;2023-06-24T11:01:06;8.02;;;3.53;;
8268;SDS011;4174;48.304;16.364;2023-06-24T11:07:09;9.20;;;3.80;;
8268;SDS011;4174;48.304;16.364;2023-06-24T11:13:13;9.57;;;4.00;;
8268;SDS011;4174;48.304;16.364;2023-06-24T11:19:19;8.93;;;4.07;;
8268;SDS011;4174;48.304;16.364;2023-06-24T11:25:26;7.28;;;3.30;;
8268;SDS011;4174;48.304;16.364;2023-06-24T11:31:35;8.52;;;3.60;;
8268;SDS011;4174;48.304;16.364;2023-06-24T11:37:42;7.82;;;3.35;;
8268;SDS011;4174;48.304;16.364;2023-06-24T11:43:49;7.57;;;3.17;;
8268;SDS011;4174;48.304;16.364;2023-06-24T11:49:55;6.82;;;3.12;;
8268;SDS011;4174;48.304;16.364;2023-06-24T11:55:59;7.10;;;3.30;;
8268;SDS011;4174;48.304;16.364;2023-06-24T12:02:04;7.45;;;3.50;;
8268;SDS011;4174;48.304;16.364;2023-06-24T12:08:09;8.23;;;3.42;;
8268;SDS011;4174;48.304;16.364;2023-06-24T12:14:12;9.25;;;3.53;;
8268;SDS011;4174;48.304;16.364;2023-06-24T12:20:34;7.33;;;3.50;;
8268;SDS011;4174;48.304;16.364;2023-06-24T12:26:42;8.83;;;3.50;;
8268;SDS011;4174;48.304;16.364;2023-06-24T12:32:52;7.75;;;3.60;;
8268;SDS011;4174;48.304;16.364;2023-06-24T12:38:57;7.80;;;3.87;;
8268;SDS011;4174;48.304;16.364;2023-06-24T12:45:03;7.57;;;3.80;;
8268;SDS011;4174;48.304;16.364;2023-06-24T12:51:10;8.10;;;4.00;;
8268;SDS011;4174;48.304;16.364;2023-06-24T12:57:17;7.37;;;3.72;;
8268;SDS011;4174;48.304;16.364;2023-06-24T13:03:24;7.78;;;4.07;;
8268;SDS011;4174;48.304;16.364;2023-06-24T13:09:38;8.20;;;3.90;;
8268;SDS011;4174;48.304;16.364;2023-06-24T13:15:43;8.70;;;4.30;;
8268;SDS011;4174;48.304;16.364;2023-06-24T13:21:49;7.90;;;4.07;;
8268;SDS011;4174;48.304;16.364;2023-06-24T13:27:55;9.43;;;4.43;;
8268;SDS011;4174;48.304;16.364;2023-06-24T13:34:09;9.17;;;4.27;;
8268;SDS011;4174;48.304;16.364;2023-06-24T13:40:13;9.30;;;4.40;;
8268;SDS011;4174;48.304;16.364;2023-06-24T13:46:18;8.88;;;4.40;;
8268;SDS011;4174;48.304;16.364;2023-06-24T13:52:28;9.32;;;4.30;;
8268;SDS011;4174;48.304;16.364;2023-06-24T13:58:33;9.02;;;4.40;;
8268;SDS011;4174;48.304;16.364;2023-06-24T14:04:39;8.57;;;4.37;;
8268;SDS011;4174;48.304;16.364;2023-06-24T14:10:43;12.10;;;4.40;;
8268;SDS011;4174;48.304;16.364;2023-06-24T14:16:49;8.70;;;4.30;;
8268;SDS011;4174;48.304;16.364;2023-06-24T14:22:54;9.02;;;4.10;;
8268;SDS011;4174;48.304;16.364;2023-06-24T14:28:59;8.27;;;4.12;;
8268;SDS011;4174;48.304;16.364;2023-06-24T14:35:04;11.17;;;4.33;;
8268;SDS011;4174;48.304;16.364;2023-06-24T14:41:11;8.97;;;4.10;;
8268;SDS011;4174;48.304;16.364;2023-06-24T14:47:18;8.33;;;4.10;;
8268;SDS011;4174;48.304;16.364;2023-06-24T14:53:24;8.27;;;4.20;;
8268;SDS011;4174;48.304;16.364;2023-06-24T14:59:30;9.80;;;3.87;;
8268;SDS011;4174;48.304;16.364;2023-06-24T15:05:36;8.63;;;4.10;;
8268;SDS011;4174;48.304;16.364;2023-06-24T15:11:41;8.35;;;4.00;;
8268;SDS011;4174;48.304;16.364;2023-06-24T15:17:47;8.20;;;4.10;;
8268;SDS011;4174;48.304;16.364;2023-06-24T15:23:56;8.10;;;4.05;;
8268;SDS011;4174;48.304;16.364;2023-06-24T15:30:10;9.47;;;4.00;;
8268;SDS011;4174;48.304;16.364;2023-06-24T15:36:16;8.50;;;4.10;;
8268;SDS011;4174;48.304;16.364;2023-06-24T15:42:20;8.90;;;4.10;;
8268;SDS011;4174;48.304;16.364;2023-06-24T15:48:27;8.02;;;4.00;;
8268;SDS011;4174;48.304;16.364;2023-06-24T15:54:32;8.00;;;4.13;;
8268;SDS011;4174;48.304;16.364;2023-06-24T16:00:39;8.43;;;4.00;;
8268;SDS011;4174;48.304;16.364;2023-06-24T16:06:46;9.57;;;4.07;;
8268;SDS011;4174;48.304;16.364;2023-06-24T16:12:56;9.20;;;4.05;;
8268;SDS011;4174;48.304;16.364;2023-06-24T16:19:02;7.70;;;3.60;;
8268;SDS011;4174;48.304;16.364;2023-06-24T16:25:08;8.85;;;3.83;;
8268;SDS011;4174;48.304;16.364;2023-06-24T16:31:13;7.47;;;3.60;;
8268;SDS011;4174;48.304;16.364;2023-06-24T16:37:18;8.57;;;3.87;;
8268;SDS011;4174;48.304;16.364;2023-06-24T16:43:27;7.70;;;3.65;;
8268;SDS011;4174;48.304;16.364;2023-06-24T16:49:32;8.02;;;3.70;;
8268;SDS011;4174;48.304;16.364;2023-06-24T16:55:37;8.57;;;3.92;;
8268;SDS011;4174;48.304;16.364;2023-06-24T17:01:46;8.32;;;3.85;;
8268;SDS011;4174;48.304;16.364;2023-06-24T17:07:52;9.13;;;3.60;;
8268;SDS011;4174;48.304;16.364;2023-06-24T17:13:59;7.33;;;3.53;;
8268;SDS011;4174;48.304;16.364;2023-06-24T17:20:06;8.10;;;3.50;;
8268;SDS011;4174;48.304;16.364;2023-06-24T17:26:11;8.67;;;3.40;;
8268;SDS011;4174;48.304;16.364;2023-06-24T17:32:15;7.40;;;3.67;;
8268;SDS011;4174;48.304;16.364;2023-06-24T17:38:19;7.30;;;3.12;;
8268;SDS011;4174;48.304;16.364;2023-06-24T17:44:22;7.30;;;3.43;;
8268;SDS011;4174;48.304;16.364;2023-06-24T17:50:26;7.23;;;3.40;;
8268;SDS011;4174;48.304;16.364;2023-06-24T17:56:29;7.07;;;3.40;;
8268;SDS011;4174;48.304;16.364;2023-06-24T18:02:33;9.10;;;4.20;;
8268;SDS011;4174;48.304;16.364;2023-06-24T18:08:38;8.55;;;3.58;;
8268;SDS011;4174;48.304;16.364;2023-06-24T18:14:41;7.78;;;3.37;;
8268;SDS011;4174;48.304;16.364;2023-06-24T18:20:46;7.73;;;3.30;;
8268;SDS011;4174;48.304;16.364;2023-06-24T18:26:49;9.98;;;3.40;;
8268;SDS011;4174;48.304;16.364;2023-06-24T18:32:54;7.00;;;3.30;;
8268;SDS011;4174;48.304;16.364;2023-06-24T18:38:59;7.97;;;3.35;;
8268;SDS011;4174;48.304;16.364;2023-06-24T18:45:03;8.55;;;3.40;;
8268;SDS011;4174;48.304;16.364;2023-06-24T18:51:08;8.80;;;3.40;;
8268;SDS011;4174;48.304;16.364;2023-06-24T18:57:12;7.55;;;3.50;;
8268;SDS011;4174;48.304;16.364;2023-06-24T19:03:16;8.57;;;3.30;;
8268;SDS011;4174;48.304;16.364;2023-06-24T19:09:20;7.43;;;3.47;;
8268;SDS011;4174;48.304;16.364;2023-06-24T19:15:23;7.97;;;3.53;;
8268;SDS011;4174;48.304;16.364;2023-06-24T19:21:27;9.03;;;3.37;;
8268;SDS011;4174;48.304;16.364;2023-06-24T19:27:30;8.13;;;3.40;;
8268;SDS011;4174;48.304;16.364;2023-06-24T19:33:34;8.32;;;3.55;;
8268;SDS011;4174;48.304;16.364;2023-06-24T19:39:37;7.90;;;3.40;;
8268;SDS011;4174;48.304;16.364;2023-06-24T19:45:41;6.78;;;3.35;;
8268;SDS011;4174;48.304;16.364;2023-06-24T19:51:44;7.43;;;3.40;;
8268;SDS011;4174;48.304;16.364;2023-06-24T19:57:49;8.52;;;3.45;;
8268;SDS011;4174;48.304;16.364;2023-06-24T20:03:53;8.03;;;3.50;;
8268;SDS011;4174;48.304;16.364;2023-06-24T20:09:57;7.85;;;3.60;;
8268;SDS011;4174;48.304;16.364;2023-06-24T20:16:01;7.37;;;3.50;;
8268;SDS011;4174;48.304;16.364;2023-06-24T20:22:06;7.23;;;3.43;;
8268;SDS011;4174;48.304;16.364;2023-06-24T20:28:10;7.65;;;3.37;;
8268;SDS011;4174;48.304;16.364;2023-06-24T20:34:14;6.93;;;3.20;;
8268;SDS011;4174;48.304;16.364;2023-06-24T20:40:18;11.00;;;3.72;;
8268;SDS011;4174;48.304;16.364;2023-06-24T20:46:22;7.78;;;3.72;;
8268;SDS011;4174;48.304;16.364;2023-06-24T20:52:25;8.80;;;3.65;;
8268;SDS011;4174;48.304;16.364;2023-06-24T20:58:28;7.60;;;3.40;;
8268;SDS011;4174;48.304;16.364;2023-06-24T21:04:32;8.07;;;3.72;;
8268;SDS011;4174;48.304;16.364;2023-06-24T21:10:35;8.20;;;3.85;;
8268;SDS011;4174;48.304;16.364;2023-06-24T21:16:39;8.43;;;3.70;;
8268;SDS011;4174;48.304;16.364;2023-06-24T21:22:42;7.82;;;3.70;;
8268;SDS011;4174;48.304;16.364;2023-06-24T21:28:46;8.53;;;3.90;;
8268;SDS011;4174;48.304;16.364;2023-06-24T21:34:50;10.40;;;4.15;;
8268;SDS011;4174;48.304;16.364;2023-06-24T21:40:54;9.80;;;3.85;;
8268;SDS011;4174;48.304;16.364;2023-06-24T21:46:58;10.27;;;4.50;;
8268;SDS011;4174;48.304;16.364;2023-06-24T21:53:01;9.20;;;4.03;;
8268;SDS011;4174;48.304;16.364;2023-06-24T21:59:05;10.45;;;4.32;;
8268;SDS011;4174;48.304;16.364;2023-06-24T22:05:09;8.43;;;4.30;;
8268;SDS011;4174;48.304;16.364;2023-06-24T22:11:13;9.23;;;4.30;;
8268;SDS011;4174;48.304;16.364;2023-06-24T22:17:17;10.27;;;4.22;;
8268;SDS011;4174;48.304;16.364;2023-06-24T22:23:21;8.65;;;4.10;;
8268;SDS011;4174;48.304;16.364;2023-06-24T22:29:26;8.80;;;4.10;;
8268;SDS011;4174;48.304;16.364;2023-06-24T22:35:29;8.70;;;4.20;;
8268;SDS011;4174;48.304;16.364;2023-06-24T22:41:33;9.35;;;4.30;;
8268;SDS011;4174;48.304;16.364;2023-06-24T22:47:37;9.23;;;4.30;;
8268;SDS011;4174;48.304;16.364;2023-06-24T22:53:40;10.45;;;4.45;;
8268;SDS011;4174;48.304;16.364;2023-06-24T22:59:45;10.63;;;4.23;;
8268;SDS011;4174;48.304;16.364;2023-06-24T23:05:49;9.50;;;4.32;;
8268;SDS011;4174;48.304;16.364;2023-06-24T23:11:56;9.68;;;4.62;;
8268;SDS011;4174;48.304;16.364;2023-06-24T23:17:59;10.17;;;4.37;;
8268;SDS011;4174;48.304;16.364;2023-06-24T23:24:03;9.87;;;4.40;;
8268;SDS011;4174;48.304;16.364;2023-06-24T23:30:08;8.73;;;4.20;;
8268;SDS011;4174;48.304;16.364;2023-06-24T23:36:12;9.73;;;4.50;;
8268;SDS011;4174;48.304;16.364;2023-06-24T23:42:16;11.50;;;4.70;;
8268;SDS011;4174;48.304;16.364;2023-06-24T23:48:19;12.73;;;5.05;;
8268;SDS011;4174;48.304;16.364;2023-06-24T23:54:22;11.73;;;5.00;;
